sensor_id;sensor_type;location;lat;lon;timestamp;P1;durP1;ratioP1;P2;durP2;ratioP2
2313;SDS011;42279;51.388;7.000;2023-07-29T00:01:44;7.63;;;7.10;;
2313;SDS011;42279;51.388;7.000;2023-07-29T00:04:11;8.03;;;7.43;;
2313;SDS011;42279;51.388;7.000;2023-07-29T00:06:37;9.00;;;7.87;;
2313;SDS011;42279;51.388;7.000;2023-07-29T00:09:04;7.23;;;6.90;;
2313;SDS011;42279;51.388;7.000;2023-07-29T00:11:30;6.30;;;6.10;;
2313;SDS011;42279;51.388;7.000;2023-07-29T00:13:58;6.33;;;6.07;;
2313;SDS011;42279;51.388;7.000;2023-07-29T00:16:24;5.33;;;5.03;;
2313;SDS011;42279;51.388;7.000;2023-07-29T00:18:50;4.90;;;4.90;;
2313;SDS011;42279;51.388;7.000;2023-07-29T00:21:16;5.83;;;5.43;;
2313;SDS011;42279;51.388;7.000;2023-07-29T00:23:42;6.53;;;6.23;;
2313;SDS011;42279;51.388;7.000;2023-07-29T00:26:08;5.50;;;5.30;;
2313;SDS011;42279;51.388;7.000;2023-07-29T00:28:34;5.90;;;5.37;;
2313;SDS011;42279;51.388;7.000;2023-07-29T00:31:01;6.20;;;5.90;;
2313;SDS011;42279;51.388;7.000;2023-07-29T00:33:27;5.23;;;5.00;;
2313;SDS011;42279;51.388;7.000;2023-07-29T00:35:53;5.07;;;4.97;;
2313;SDS011;42279;51.388;7.000;2023-07-29T00:38:19;5.83;;;5.43;;
2313;SDS011;42279;51.388;7.000;2023-07-29T00:40:45;4.90;;;4.70;;
2313;SDS011;42279;51.388;7.000;2023-07-29T00:43:11;4.80;;;4.60;;
2313;SDS011;42279;51.388;7.000;2023-07-29T00:45:37;5.00;;;4.90;;
2313;SDS011;42279;51.388;7.000;2023-07-29T00:48:04;4.57;;;4.37;;
2313;SDS011;42279;51.388;7.000;2023-07-29T00:53:34;4.67;;;4.47;;
2313;SDS011;42279;51.388;7.000;2023-07-29T00:56:00;4.93;;;4.53;;
2313;SDS011;42279;51.388;7.000;2023-07-29T00:58:26;4.83;;;4.70;;
2313;SDS011;42279;51.388;7.000;2023-07-29T01:00:52;5.30;;;5.00;;
2313;SDS011;42279;51.388;7.000;2023-07-29T01:03:18;5.30;;;5.20;;
2313;SDS011;42279;51.388;7.000;2023-07-29T01:05:56;5.10;;;4.80;;
2313;SDS011;42279;51.388;7.000;2023-07-29T01:08:46;5.70;;;5.40;;
2313;SDS011;42279;51.388;7.000;2023-07-29T01:14:00;5.47;;;5.27;;
2313;SDS011;42279;51.388;7.000;2023-07-29T01:16:31;5.50;;;5.30;;
2313;SDS011;42279;51.388;7.000;2023-07-29T01:19:04;5.40;;;5.20;;
2313;SDS011;42279;51.388;7.000;2023-07-29T01:21:35;5.13;;;4.83;;
2313;SDS011;42279;51.388;7.000;2023-07-29T01:24:02;4.90;;;4.80;;
2313;SDS011;42279;51.388;7.000;2023-07-29T01:26:28;5.07;;;4.97;;
2313;SDS011;42279;51.388;7.000;2023-07-29T01:28:54;5.33;;;5.23;;
2313;SDS011;42279;51.388;7.000;2023-07-29T01:31:27;4.53;;;4.33;;
2313;SDS011;42279;51.388;7.000;2023-07-29T01:33:58;5.10;;;4.90;;
2313;SDS011;42279;51.388;7.000;2023-07-29T01:36:26;5.17;;;5.07;;
2313;SDS011;42279;51.388;7.000;2023-07-29T01:38:53;5.50;;;5.07;;
2313;SDS011;42279;51.388;7.000;2023-07-29T01:41:20;5.60;;;5.20;;
2313;SDS011;42279;51.388;7.000;2023-07-29T01:43:46;5.33;;;5.13;;
2313;SDS011;42279;51.388;7.000;2023-07-29T01:46:12;5.20;;;5.00;;
2313;SDS011;42279;51.388;7.000;2023-07-29T01:48:39;5.03;;;4.83;;
2313;SDS011;42279;51.388;7.000;2023-07-29T01:51:05;5.80;;;5.30;;
2313;SDS011;42279;51.388;7.000;2023-07-29T01:53:31;5.53;;;5.10;;
2313;SDS011;42279;51.388;7.000;2023-07-29T01:55:57;4.60;;;4.60;;
2313;SDS011;42279;51.388;7.000;2023-07-29T01:58:23;5.40;;;5.10;;
2313;SDS011;42279;51.388;7.000;2023-07-29T02:00:49;5.33;;;5.10;;
2313;SDS011;42279;51.388;7.000;2023-07-29T02:03:15;5.00;;;4.80;;
2313;SDS011;42279;51.388;7.000;2023-07-29T02:05:42;5.50;;;5.40;;
2313;SDS011;42279;51.388;7.000;2023-07-29T02:08:08;5.70;;;5.30;;
2313;SDS011;42279;51.388;7.000;2023-07-29T02:10:34;4.43;;;4.30;;
2313;SDS011;42279;51.388;7.000;2023-07-29T02:13:00;4.33;;;4.17;;
2313;SDS011;42279;51.388;7.000;2023-07-29T02:15:26;4.20;;;4.10;;
2313;SDS011;42279;51.388;7.000;2023-07-29T02:17:53;4.20;;;4.10;;
2313;SDS011;42279;51.388;7.000;2023-07-29T02:20:19;3.23;;;3.23;;
2313;SDS011;42279;51.388;7.000;2023-07-29T02:22:45;4.30;;;4.00;;
2313;SDS011;42279;51.388;7.000;2023-07-29T02:25:12;4.00;;;3.70;;
2313;SDS011;42279;51.388;7.000;2023-07-29T02:27:38;4.30;;;4.10;;
2313;SDS011;42279;51.388;7.000;2023-07-29T02:30:04;4.50;;;4.40;;
2313;SDS011;42279;51.388;7.000;2023-07-29T02:32:30;4.90;;;3.93;;
2313;SDS011;42279;51.388;7.000;2023-07-29T02:34:56;4.70;;;4.60;;
2313;SDS011;42279;51.388;7.000;2023-07-29T02:37:22;4.17;;;3.97;;
2313;SDS011;42279;51.388;7.000;2023-07-29T02:39:48;3.90;;;3.80;;
2313;SDS011;42279;51.388;7.000;2023-07-29T02:42:14;4.10;;;4.00;;
2313;SDS011;42279;51.388;7.000;2023-07-29T02:44:40;4.23;;;4.13;;
2313;SDS011;42279;51.388;7.000;2023-07-29T02:47:06;5.20;;;4.77;;
2313;SDS011;42279;51.388;7.000;2023-07-29T02:49:32;4.97;;;4.20;;
2313;SDS011;42279;51.388;7.000;2023-07-29T02:51:58;5.00;;;4.80;;
2313;SDS011;42279;51.388;7.000;2023-07-29T02:54:24;4.87;;;4.77;;
2313;SDS011;42279;51.388;7.000;2023-07-29T02:56:50;4.90;;;4.50;;
2313;SDS011;42279;51.388;7.000;2023-07-29T02:59:16;4.17;;;4.07;;
2313;SDS011;42279;51.388;7.000;2023-07-29T03:01:42;5.53;;;5.23;;
2313;SDS011;42279;51.388;7.000;2023-07-29T03:04:08;5.00;;;4.90;;
2313;SDS011;42279;51.388;7.000;2023-07-29T03:06:34;5.90;;;5.50;;
2313;SDS011;42279;51.388;7.000;2023-07-29T03:09:00;5.03;;;4.83;;
2313;SDS011;42279;51.388;7.000;2023-07-29T03:11:26;4.60;;;4.50;;
2313;SDS011;42279;51.388;7.000;2023-07-29T03:13:52;5.07;;;5.07;;
2313;SDS011;42279;51.388;7.000;2023-07-29T03:16:18;4.37;;;4.27;;
2313;SDS011;42279;51.388;7.000;2023-07-29T03:18:44;5.40;;;5.30;;
2313;SDS011;42279;51.388;7.000;2023-07-29T03:21:10;4.20;;;4.17;;
2313;SDS011;42279;51.388;7.000;2023-07-29T03:23:36;4.50;;;4.30;;
2313;SDS011;42279;51.388;7.000;2023-07-29T03:26:03;7.70;;;5.23;;
2313;SDS011;42279;51.388;7.000;2023-07-29T03:28:35;4.87;;;4.67;;
2313;SDS011;42279;51.388;7.000;2023-07-29T03:31:01;5.07;;;4.77;;
2313;SDS011;42279;51.388;7.000;2023-07-29T03:33:28;5.13;;;4.83;;
2313;SDS011;42279;51.388;7.000;2023-07-29T03:35:54;5.20;;;5.10;;
2313;SDS011;42279;51.388;7.000;2023-07-29T03:38:20;5.30;;;5.20;;
2313;SDS011;42279;51.388;7.000;2023-07-29T03:40:46;5.50;;;5.40;;
2313;SDS011;42279;51.388;7.000;2023-07-29T03:43:12;4.43;;;4.40;;
2313;SDS011;42279;51.388;7.000;2023-07-29T03:45:38;5.07;;;4.97;;
2313;SDS011;42279;51.388;7.000;2023-07-29T03:48:04;5.33;;;5.20;;
2313;SDS011;42279;51.388;7.000;2023-07-29T03:50:32;5.83;;;5.40;;
2313;SDS011;42279;51.388;7.000;2023-07-29T03:52:58;5.37;;;5.17;;
2313;SDS011;42279;51.388;7.000;2023-07-29T03:55:24;5.50;;;5.37;;
2313;SDS011;42279;51.388;7.000;2023-07-29T03:57:50;5.50;;;5.20;;
2313;SDS011;42279;51.388;7.000;2023-07-29T04:00:16;6.00;;;5.80;;
2313;SDS011;42279;51.388;7.000;2023-07-29T04:02:42;5.60;;;5.37;;
2313;SDS011;42279;51.388;7.000;2023-07-29T04:05:10;9.50;;;5.50;;
2313;SDS011;42279;51.388;7.000;2023-07-29T04:07:36;5.40;;;5.30;;
2313;SDS011;42279;51.388;7.000;2023-07-29T04:10:02;6.10;;;5.20;;
2313;SDS011;42279;51.388;7.000;2023-07-29T04:12:29;5.70;;;5.50;;
2313;SDS011;42279;51.388;7.000;2023-07-29T04:14:55;6.10;;;5.70;;
2313;SDS011;42279;51.388;7.000;2023-07-29T04:17:21;5.30;;;5.20;;
2313;SDS011;42279;51.388;7.000;2023-07-29T04:19:47;4.60;;;4.47;;
2313;SDS011;42279;51.388;7.000;2023-07-29T04:22:13;5.50;;;5.10;;
2313;SDS011;42279;51.388;7.000;2023-07-29T04:24:39;5.37;;;5.27;;
2313;SDS011;42279;51.388;7.000;2023-07-29T04:27:05;5.40;;;5.10;;
2313;SDS011;42279;51.388;7.000;2023-07-29T04:29:31;5.70;;;5.37;;
2313;SDS011;42279;51.388;7.000;2023-07-29T04:31:57;5.33;;;5.03;;
2313;SDS011;42279;51.388;7.000;2023-07-29T04:34:23;6.20;;;5.90;;
2313;SDS011;42279;51.388;7.000;2023-07-29T04:36:50;6.20;;;5.80;;
2313;SDS011;42279;51.388;7.000;2023-07-29T04:39:16;7.33;;;7.03;;
2313;SDS011;42279;51.388;7.000;2023-07-29T04:41:43;5.83;;;5.73;;
2313;SDS011;42279;51.388;7.000;2023-07-29T04:44:09;6.07;;;5.83;;
2313;SDS011;42279;51.388;7.000;2023-07-29T04:46:36;6.60;;;6.40;;
2313;SDS011;42279;51.388;7.000;2023-07-29T04:49:02;6.70;;;6.50;;
2313;SDS011;42279;51.388;7.000;2023-07-29T04:51:28;6.60;;;6.40;;
2313;SDS011;42279;51.388;7.000;2023-07-29T04:53:54;6.07;;;5.87;;
2313;SDS011;42279;51.388;7.000;2023-07-29T04:56:20;6.60;;;5.70;;
2313;SDS011;42279;51.388;7.000;2023-07-29T04:58:46;5.10;;;5.00;;
2313;SDS011;42279;51.388;7.000;2023-07-29T05:01:12;6.17;;;5.97;;
2313;SDS011;42279;51.388;7.000;2023-07-29T05:03:38;6.80;;;6.50;;
2313;SDS011;42279;51.388;7.000;2023-07-29T05:06:04;6.30;;;6.10;;
2313;SDS011;42279;51.388;7.000;2023-07-29T05:08:30;6.57;;;6.10;;
2313;SDS011;42279;51.388;7.000;2023-07-29T05:10:56;6.80;;;6.50;;
2313;SDS011;42279;51.388;7.000;2023-07-29T05:13:22;7.43;;;6.90;;
2313;SDS011;42279;51.388;7.000;2023-07-29T05:15:48;6.30;;;6.00;;
2313;SDS011;42279;51.388;7.000;2023-07-29T05:18:15;7.53;;;7.20;;
2313;SDS011;42279;51.388;7.000;2023-07-29T05:20:41;8.23;;;7.80;;
2313;SDS011;42279;51.388;7.000;2023-07-29T05:23:07;7.27;;;6.97;;
2313;SDS011;42279;51.388;7.000;2023-07-29T05:25:33;8.33;;;7.63;;
2313;SDS011;42279;51.388;7.000;2023-07-29T05:28:02;7.80;;;7.40;;
2313;SDS011;42279;51.388;7.000;2023-07-29T05:30:29;6.60;;;6.30;;
2313;SDS011;42279;51.388;7.000;2023-07-29T05:33:02;7.17;;;6.87;;
2313;SDS011;42279;51.388;7.000;2023-07-29T05:35:28;6.87;;;6.53;;
2313;SDS011;42279;51.388;7.000;2023-07-29T05:37:54;8.07;;;5.80;;
2313;SDS011;42279;51.388;7.000;2023-07-29T05:40:20;6.60;;;6.33;;
2313;SDS011;42279;51.388;7.000;2023-07-29T05:42:46;6.63;;;6.40;;
2313;SDS011;42279;51.388;7.000;2023-07-29T05:45:12;6.00;;;5.70;;
2313;SDS011;42279;51.388;7.000;2023-07-29T05:47:38;5.70;;;5.40;;
2313;SDS011;42279;51.388;7.000;2023-07-29T05:50:04;5.53;;;5.43;;
2313;SDS011;42279;51.388;7.000;2023-07-29T05:52:31;5.27;;;5.07;;
2313;SDS011;42279;51.388;7.000;2023-07-29T05:54:57;4.43;;;4.43;;
2313;SDS011;42279;51.388;7.000;2023-07-29T05:57:23;4.87;;;4.77;;
2313;SDS011;42279;51.388;7.000;2023-07-29T05:59:49;4.10;;;4.10;;
2313;SDS011;42279;51.388;7.000;2023-07-29T06:02:15;4.23;;;4.00;;
2313;SDS011;42279;51.388;7.000;2023-07-29T06:04:41;4.57;;;4.47;;
2313;SDS011;42279;51.388;7.000;2023-07-29T06:07:07;3.90;;;3.23;;
2313;SDS011;42279;51.388;7.000;2023-07-29T06:09:33;4.00;;;3.90;;
2313;SDS011;42279;51.388;7.000;2023-07-29T06:11:59;3.10;;;3.00;;
2313;SDS011;42279;51.388;7.000;2023-07-29T06:14:25;2.90;;;2.90;;
2313;SDS011;42279;51.388;7.000;2023-07-29T06:16:51;3.03;;;3.00;;
2313;SDS011;42279;51.388;7.000;2023-07-29T06:19:18;2.50;;;2.40;;
2313;SDS011;42279;51.388;7.000;2023-07-29T06:21:44;3.50;;;3.00;;
2313;SDS011;42279;51.388;7.000;2023-07-29T06:24:10;3.93;;;3.10;;
2313;SDS011;42279;51.388;7.000;2023-07-29T06:26:36;3.50;;;3.40;;
2313;SDS011;42279;51.388;7.000;2023-07-29T06:29:02;3.90;;;3.13;;
2313;SDS011;42279;51.388;7.000;2023-07-29T06:31:28;3.63;;;3.53;;
2313;SDS011;42279;51.388;7.000;2023-07-29T06:33:54;3.40;;;3.10;;
2313;SDS011;42279;51.388;7.000;2023-07-29T06:36:20;5.23;;;3.73;;
2313;SDS011;42279;51.388;7.000;2023-07-29T06:38:46;3.30;;;3.20;;
2313;SDS011;42279;51.388;7.000;2023-07-29T06:41:12;3.50;;;3.50;;
2313;SDS011;42279;51.388;7.000;2023-07-29T06:43:38;3.87;;;3.83;;
2313;SDS011;42279;51.388;7.000;2023-07-29T06:46:04;3.27;;;3.17;;
2313;SDS011;42279;51.388;7.000;2023-07-29T06:48:30;3.67;;;3.57;;
2313;SDS011;42279;51.388;7.000;2023-07-29T06:50:56;3.00;;;2.90;;
2313;SDS011;42279;51.388;7.000;2023-07-29T06:53:25;3.03;;;2.93;;
2313;SDS011;42279;51.388;7.000;2023-07-29T06:55:51;2.70;;;2.60;;
2313;SDS011;42279;51.388;7.000;2023-07-29T06:58:17;2.50;;;2.50;;
2313;SDS011;42279;51.388;7.000;2023-07-29T07:00:43;3.10;;;3.10;;
2313;SDS011;42279;51.388;7.000;2023-07-29T07:03:09;3.13;;;2.50;;
2313;SDS011;42279;51.388;7.000;2023-07-29T07:05:35;2.47;;;2.30;;
2313;SDS011;42279;51.388;7.000;2023-07-29T07:08:01;2.73;;;2.63;;
2313;SDS011;42279;51.388;7.000;2023-07-29T07:10:29;2.50;;;2.40;;
2313;SDS011;42279;51.388;7.000;2023-07-29T07:12:56;2.40;;;2.30;;
2313;SDS011;42279;51.388;7.000;2023-07-29T07:15:22;2.00;;;1.90;;
2313;SDS011;42279;51.388;7.000;2023-07-29T07:17:48;2.03;;;2.03;;
2313;SDS011;42279;51.388;7.000;2023-07-29T07:20:14;2.17;;;2.17;;
2313;SDS011;42279;51.388;7.000;2023-07-29T07:22:40;1.83;;;1.83;;
2313;SDS011;42279;51.388;7.000;2023-07-29T07:25:06;1.80;;;1.80;;
2313;SDS011;42279;51.388;7.000;2023-07-29T07:27:35;1.63;;;1.63;;
2313;SDS011;42279;51.388;7.000;2023-07-29T07:30:01;1.50;;;1.40;;
2313;SDS011;42279;51.388;7.000;2023-07-29T07:32:33;2.73;;;2.50;;
2313;SDS011;42279;51.388;7.000;2023-07-29T07:35:11;1.80;;;1.80;;
2313;SDS011;42279;51.388;7.000;2023-07-29T07:37:37;1.80;;;1.80;;
2313;SDS011;42279;51.388;7.000;2023-07-29T07:40:04;1.60;;;1.60;;
2313;SDS011;42279;51.388;7.000;2023-07-29T07:42:37;1.80;;;1.70;;
2313;SDS011;42279;51.388;7.000;2023-07-29T07:45:03;1.83;;;1.73;;
2313;SDS011;42279;51.388;7.000;2023-07-29T07:47:30;1.60;;;1.60;;
2313;SDS011;42279;51.388;7.000;2023-07-29T07:49:56;1.60;;;1.60;;
2313;SDS011;42279;51.388;7.000;2023-07-29T07:52:22;1.27;;;1.27;;
2313;SDS011;42279;51.388;7.000;2023-07-29T07:54:54;1.70;;;1.70;;
2313;SDS011;42279;51.388;7.000;2023-07-29T07:57:21;1.33;;;1.33;;
2313;SDS011;42279;51.388;7.000;2023-07-29T07:59:47;1.63;;;1.53;;
2313;SDS011;42279;51.388;7.000;2023-07-29T08:02:13;1.30;;;1.30;;
2313;SDS011;42279;51.388;7.000;2023-07-29T08:04:39;1.20;;;1.20;;
2313;SDS011;42279;51.388;7.000;2023-07-29T08:07:05;1.30;;;1.30;;
2313;SDS011;42279;51.388;7.000;2023-07-29T08:09:34;1.27;;;1.27;;
2313;SDS011;42279;51.388;7.000;2023-07-29T08:12:00;1.23;;;1.23;;
2313;SDS011;42279;51.388;7.000;2023-07-29T08:14:26;1.47;;;1.47;;
2313;SDS011;42279;51.388;7.000;2023-07-29T08:16:52;1.67;;;1.63;;
2313;SDS011;42279;51.388;7.000;2023-07-29T08:19:18;4.03;;;3.93;;
2313;SDS011;42279;51.388;7.000;2023-07-29T08:21:44;1.50;;;1.50;;
2313;SDS011;42279;51.388;7.000;2023-07-29T08:24:10;1.47;;;1.47;;
2313;SDS011;42279;51.388;7.000;2023-07-29T08:26:36;2.40;;;1.07;;
2313;SDS011;42279;51.388;7.000;2023-07-29T08:29:02;1.10;;;1.10;;
2313;SDS011;42279;51.388;7.000;2023-07-29T08:31:28;1.17;;;1.17;;
2313;SDS011;42279;51.388;7.000;2023-07-29T08:33:58;1.20;;;1.20;;
2313;SDS011;42279;51.388;7.000;2023-07-29T08:36:27;1.37;;;1.37;;
2313;SDS011;42279;51.388;7.000;2023-07-29T08:38:53;1.10;;;1.10;;
2313;SDS011;42279;51.388;7.000;2023-07-29T08:41:21;1.10;;;1.10;;
2313;SDS011;42279;51.388;7.000;2023-07-29T08:46:35;1.30;;;1.20;;
2313;SDS011;42279;51.388;7.000;2023-07-29T08:49:02;1.03;;;1.03;;
2313;SDS011;42279;51.388;7.000;2023-07-29T08:51:28;1.70;;;1.60;;
2313;SDS011;42279;51.388;7.000;2023-07-29T08:53:55;2.40;;;1.10;;
2313;SDS011;42279;51.388;7.000;2023-07-29T08:56:21;1.20;;;1.20;;
2313;SDS011;42279;51.388;7.000;2023-07-29T08:58:48;1.80;;;1.80;;
2313;SDS011;42279;51.388;7.000;2023-07-29T09:01:14;2.20;;;1.50;;
2313;SDS011;42279;51.388;7.000;2023-07-29T09:03:41;3.03;;;1.20;;
2313;SDS011;42279;51.388;7.000;2023-07-29T09:06:07;1.57;;;1.57;;
2313;SDS011;42279;51.388;7.000;2023-07-29T09:08:33;1.30;;;1.20;;
2313;SDS011;42279;51.388;7.000;2023-07-29T09:10:59;1.00;;;1.00;;
2313;SDS011;42279;51.388;7.000;2023-07-29T09:13:26;2.47;;;1.17;;
2313;SDS011;42279;51.388;7.000;2023-07-29T09:15:55;1.33;;;1.23;;
2313;SDS011;42279;51.388;7.000;2023-07-29T09:18:21;0.90;;;0.90;;
2313;SDS011;42279;51.388;7.000;2023-07-29T09:20:48;1.20;;;1.20;;
2313;SDS011;42279;51.388;7.000;2023-07-29T09:23:14;1.30;;;1.30;;
2313;SDS011;42279;51.388;7.000;2023-07-29T09:25:41;1.90;;;1.70;;
2313;SDS011;42279;51.388;7.000;2023-07-29T09:28:08;1.10;;;1.10;;
2313;SDS011;42279;51.388;7.000;2023-07-29T09:30:34;1.17;;;1.17;;
2313;SDS011;42279;51.388;7.000;2023-07-29T09:33:00;1.90;;;1.50;;
2313;SDS011;42279;51.388;7.000;2023-07-29T09:35:30;1.20;;;1.20;;
2313;SDS011;42279;51.388;7.000;2023-07-29T09:37:58;1.20;;;1.20;;
2313;SDS011;42279;51.388;7.000;2023-07-29T09:40:24;1.00;;;1.00;;
2313;SDS011;42279;51.388;7.000;2023-07-29T09:48:37;1.37;;;1.37;;
2313;SDS011;42279;51.388;7.000;2023-07-29T09:51:20;1.00;;;1.00;;
2313;SDS011;42279;51.388;7.000;2023-07-29T09:53:56;1.40;;;1.40;;
2313;SDS011;42279;51.388;7.000;2023-07-29T09:56:56;1.20;;;1.20;;
2313;SDS011;42279;51.388;7.000;2023-07-29T09:59:33;1.33;;;1.33;;
2313;SDS011;42279;51.388;7.000;2023-07-29T10:02:16;2.27;;;2.27;;
2313;SDS011;42279;51.388;7.000;2023-07-29T10:04:42;1.10;;;1.10;;
2313;SDS011;42279;51.388;7.000;2023-07-29T10:07:11;1.77;;;1.77;;
2313;SDS011;42279;51.388;7.000;2023-07-29T10:09:40;1.40;;;1.40;;
2313;SDS011;42279;51.388;7.000;2023-07-29T10:12:06;1.00;;;1.00;;
2313;SDS011;42279;51.388;7.000;2023-07-29T10:14:33;1.20;;;1.20;;
2313;SDS011;42279;51.388;7.000;2023-07-29T10:16:59;1.27;;;1.27;;
2313;SDS011;42279;51.388;7.000;2023-07-29T10:19:25;1.13;;;1.03;;
2313;SDS011;42279;51.388;7.000;2023-07-29T10:21:51;2.40;;;1.20;;
2313;SDS011;42279;51.388;7.000;2023-07-29T10:24:22;1.90;;;1.90;;
2313;SDS011;42279;51.388;7.000;2023-07-29T10:26:54;1.20;;;1.20;;
2313;SDS011;42279;51.388;7.000;2023-07-29T10:29:22;1.60;;;1.60;;
2313;SDS011;42279;51.388;7.000;2023-07-29T10:31:50;1.43;;;1.43;;
2313;SDS011;42279;51.388;7.000;2023-07-29T10:34:18;1.70;;;1.13;;
2313;SDS011;42279;51.388;7.000;2023-07-29T10:36:45;1.00;;;1.00;;
2313;SDS011;42279;51.388;7.000;2023-07-29T10:39:11;1.57;;;1.57;;
2313;SDS011;42279;51.388;7.000;2023-07-29T10:47:18;1.20;;;1.20;;
2313;SDS011;42279;51.388;7.000;2023-07-29T10:49:45;1.20;;;1.20;;
2313;SDS011;42279;51.388;7.000;2023-07-29T10:52:14;1.20;;;1.20;;
2313;SDS011;42279;51.388;7.000;2023-07-29T10:54:42;1.50;;;1.50;;
2313;SDS011;42279;51.388;7.000;2023-07-29T10:57:08;1.33;;;1.23;;
2313;SDS011;42279;51.388;7.000;2023-07-29T10:59:38;1.40;;;1.40;;
2313;SDS011;42279;51.388;7.000;2023-07-29T11:02:12;1.50;;;1.50;;
2313;SDS011;42279;51.388;7.000;2023-07-29T11:04:50;1.40;;;1.40;;
2313;SDS011;42279;51.388;7.000;2023-07-29T11:17:34;1.10;;;1.10;;
2313;SDS011;42279;51.388;7.000;2023-07-29T11:20:01;1.20;;;1.20;;
2313;SDS011;42279;51.388;7.000;2023-07-29T11:22:28;1.20;;;1.20;;
2313;SDS011;42279;51.388;7.000;2023-07-29T11:24:54;1.23;;;1.23;;
2313;SDS011;42279;51.388;7.000;2023-07-29T11:27:20;1.17;;;1.17;;
2313;SDS011;42279;51.388;7.000;2023-07-29T11:29:47;1.00;;;1.00;;
2313;SDS011;42279;51.388;7.000;2023-07-29T11:32:13;1.30;;;1.20;;
2313;SDS011;42279;51.388;7.000;2023-07-29T11:34:39;1.87;;;1.77;;
2313;SDS011;42279;51.388;7.000;2023-07-29T11:37:05;2.73;;;1.43;;
2313;SDS011;42279;51.388;7.000;2023-07-29T11:39:31;1.70;;;1.70;;
2313;SDS011;42279;51.388;7.000;2023-07-29T11:41:57;1.37;;;1.37;;
2313;SDS011;42279;51.388;7.000;2023-07-29T11:44:26;1.70;;;1.70;;
2313;SDS011;42279;51.388;7.000;2023-07-29T11:46:53;1.23;;;1.23;;
2313;SDS011;42279;51.388;7.000;2023-07-29T11:49:19;1.47;;;1.47;;
2313;SDS011;42279;51.388;7.000;2023-07-29T11:51:45;1.50;;;1.50;;
2313;SDS011;42279;51.388;7.000;2023-07-29T11:54:11;1.10;;;1.10;;
2313;SDS011;42279;51.388;7.000;2023-07-29T11:56:37;1.27;;;1.27;;
2313;SDS011;42279;51.388;7.000;2023-07-29T11:59:04;1.20;;;1.20;;
2313;SDS011;42279;51.388;7.000;2023-07-29T12:01:30;1.50;;;1.50;;
2313;SDS011;42279;51.388;7.000;2023-07-29T12:03:56;1.37;;;1.37;;
2313;SDS011;42279;51.388;7.000;2023-07-29T12:06:23;1.00;;;1.00;;
2313;SDS011;42279;51.388;7.000;2023-07-29T12:08:50;1.57;;;1.57;;
2313;SDS011;42279;51.388;7.000;2023-07-29T12:11:16;1.77;;;1.67;;
2313;SDS011;42279;51.388;7.000;2023-07-29T12:13:42;1.77;;;1.77;;
2313;SDS011;42279;51.388;7.000;2023-07-29T12:16:09;1.60;;;1.60;;
2313;SDS011;42279;51.388;7.000;2023-07-29T12:18:35;3.90;;;3.70;;
2313;SDS011;42279;51.388;7.000;2023-07-29T12:21:02;7.43;;;7.03;;
2313;SDS011;42279;51.388;7.000;2023-07-29T12:23:28;1.10;;;1.10;;
2313;SDS011;42279;51.388;7.000;2023-07-29T12:25:58;1.07;;;1.07;;
2313;SDS011;42279;51.388;7.000;2023-07-29T12:28:24;1.40;;;1.40;;
2313;SDS011;42279;51.388;7.000;2023-07-29T12:30:54;1.40;;;1.40;;
2313;SDS011;42279;51.388;7.000;2023-07-29T12:36:16;1.63;;;1.63;;
2313;SDS011;42279;51.388;7.000;2023-07-29T12:38:42;1.60;;;1.60;;
2313;SDS011;42279;51.388;7.000;2023-07-29T12:41:09;1.50;;;1.50;;
2313;SDS011;42279;51.388;7.000;2023-07-29T12:43:35;2.43;;;2.43;;
2313;SDS011;42279;51.388;7.000;2023-07-29T12:46:01;2.50;;;2.50;;
2313;SDS011;42279;51.388;7.000;2023-07-29T12:48:27;2.53;;;1.57;;
2313;SDS011;42279;51.388;7.000;2023-07-29T12:50:55;1.60;;;1.60;;
2313;SDS011;42279;51.388;7.000;2023-07-29T12:53:21;1.80;;;1.70;;
2313;SDS011;42279;51.388;7.000;2023-07-29T12:55:47;2.00;;;2.00;;
2313;SDS011;42279;51.388;7.000;2023-07-29T12:58:13;2.00;;;2.00;;
2313;SDS011;42279;51.388;7.000;2023-07-29T13:00:39;1.70;;;1.60;;
2313;SDS011;42279;51.388;7.000;2023-07-29T13:03:05;1.77;;;1.77;;
2313;SDS011;42279;51.388;7.000;2023-07-29T13:05:31;1.70;;;1.70;;
2313;SDS011;42279;51.388;7.000;2023-07-29T13:07:57;1.63;;;1.63;;
2313;SDS011;42279;51.388;7.000;2023-07-29T13:10:23;1.70;;;1.70;;
2313;SDS011;42279;51.388;7.000;2023-07-29T13:12:49;2.50;;;1.90;;
2313;SDS011;42279;51.388;7.000;2023-07-29T13:15:15;2.17;;;1.77;;
2313;SDS011;42279;51.388;7.000;2023-07-29T13:17:41;1.77;;;1.77;;
2313;SDS011;42279;51.388;7.000;2023-07-29T13:20:12;1.90;;;1.90;;
2313;SDS011;42279;51.388;7.000;2023-07-29T13:22:39;1.30;;;1.30;;
2313;SDS011;42279;51.388;7.000;2023-07-29T13:25:05;1.70;;;1.60;;
2313;SDS011;42279;51.388;7.000;2023-07-29T13:27:31;2.00;;;2.00;;
2313;SDS011;42279;51.388;7.000;2023-07-29T13:29:57;1.83;;;1.83;;
2313;SDS011;42279;51.388;7.000;2023-07-29T13:32:23;1.90;;;1.90;;
2313;SDS011;42279;51.388;7.000;2023-07-29T13:34:49;1.80;;;1.80;;
2313;SDS011;42279;51.388;7.000;2023-07-29T13:37:15;1.70;;;1.70;;
2313;SDS011;42279;51.388;7.000;2023-07-29T13:39:41;4.03;;;1.50;;
2313;SDS011;42279;51.388;7.000;2023-07-29T13:42:07;2.00;;;1.90;;
2313;SDS011;42279;51.388;7.000;2023-07-29T13:44:33;1.47;;;1.47;;
2313;SDS011;42279;51.388;7.000;2023-07-29T13:46:59;4.23;;;3.83;;
2313;SDS011;42279;51.388;7.000;2023-07-29T13:49:25;1.70;;;1.70;;
2313;SDS011;42279;51.388;7.000;2023-07-29T13:51:51;1.73;;;1.63;;
2313;SDS011;42279;51.388;7.000;2023-07-29T13:54:17;1.50;;;1.50;;
2313;SDS011;42279;51.388;7.000;2023-07-29T13:56:43;1.67;;;1.67;;
2313;SDS011;42279;51.388;7.000;2023-07-29T13:59:09;2.50;;;2.23;;
2313;SDS011;42279;51.388;7.000;2023-07-29T14:01:35;2.80;;;2.70;;
2313;SDS011;42279;51.388;7.000;2023-07-29T14:04:01;2.60;;;2.40;;
2313;SDS011;42279;51.388;7.000;2023-07-29T14:06:27;2.60;;;2.50;;
2313;SDS011;42279;51.388;7.000;2023-07-29T14:08:53;3.20;;;3.10;;
2313;SDS011;42279;51.388;7.000;2023-07-29T14:11:19;3.57;;;3.27;;
2313;SDS011;42279;51.388;7.000;2023-07-29T14:13:45;4.70;;;3.10;;
2313;SDS011;42279;51.388;7.000;2023-07-29T14:16:14;3.57;;;3.37;;
2313;SDS011;42279;51.388;7.000;2023-07-29T14:18:40;3.70;;;3.60;;
2313;SDS011;42279;51.388;7.000;2023-07-29T14:21:06;4.20;;;3.30;;
2313;SDS011;42279;51.388;7.000;2023-07-29T14:23:32;3.43;;;3.33;;
2313;SDS011;42279;51.388;7.000;2023-07-29T14:25:58;4.03;;;3.27;;
2313;SDS011;42279;51.388;7.000;2023-07-29T14:28:24;3.43;;;3.23;;
2313;SDS011;42279;51.388;7.000;2023-07-29T14:30:50;4.27;;;4.07;;
2313;SDS011;42279;51.388;7.000;2023-07-29T14:33:16;2.83;;;2.73;;
2313;SDS011;42279;51.388;7.000;2023-07-29T14:35:42;2.90;;;2.70;;
2313;SDS011;42279;51.388;7.000;2023-07-29T14:38:08;2.50;;;2.50;;
2313;SDS011;42279;51.388;7.000;2023-07-29T14:40:34;2.37;;;2.37;;
2313;SDS011;42279;51.388;7.000;2023-07-29T14:43:00;2.70;;;2.57;;
2313;SDS011;42279;51.388;7.000;2023-07-29T14:45:26;3.50;;;3.30;;
2313;SDS011;42279;51.388;7.000;2023-07-29T14:47:52;3.50;;;3.30;;
2313;SDS011;42279;51.388;7.000;2023-07-29T14:50:17;2.70;;;2.60;;
2313;SDS011;42279;51.388;7.000;2023-07-29T14:52:43;2.90;;;2.40;;
2313;SDS011;42279;51.388;7.000;2023-07-29T14:55:10;2.30;;;2.30;;
2313;SDS011;42279;51.388;7.000;2023-07-29T14:57:36;1.93;;;1.93;;
2313;SDS011;42279;51.388;7.000;2023-07-29T15:00:02;1.90;;;1.83;;
2313;SDS011;42279;51.388;7.000;2023-07-29T15:02:28;1.90;;;1.90;;
2313;SDS011;42279;51.388;7.000;2023-07-29T15:04:54;2.23;;;2.23;;
2313;SDS011;42279;51.388;7.000;2023-07-29T15:07:20;2.47;;;2.37;;
2313;SDS011;42279;51.388;7.000;2023-07-29T15:09:46;1.90;;;1.90;;
2313;SDS011;42279;51.388;7.000;2023-07-29T15:12:12;2.10;;;2.10;;
2313;SDS011;42279;51.388;7.000;2023-07-29T15:14:38;2.20;;;2.20;;
2313;SDS011;42279;51.388;7.000;2023-07-29T15:17:05;2.40;;;2.30;;
2313;SDS011;42279;51.388;7.000;2023-07-29T15:19:31;2.40;;;2.40;;
2313;SDS011;42279;51.388;7.000;2023-07-29T15:22:00;2.40;;;2.30;;
2313;SDS011;42279;51.388;7.000;2023-07-29T15:24:29;1.90;;;1.90;;
2313;SDS011;42279;51.388;7.000;2023-07-29T15:26:56;2.00;;;1.90;;
2313;SDS011;42279;51.388;7.000;2023-07-29T15:29:22;2.80;;;2.70;;
2313;SDS011;42279;51.388;7.000;2023-07-29T15:31:48;2.40;;;2.40;;